MONITORING PENGADAAN SECARA ELEKTRONIK
Bagian Pengadaan Barang dan Jasa Sekretariat Daerah Kabupaten Magetan Tahun Anggaran2025
MONITORING NON TENDER
Informasi
1. Data Non Tender merupakan Paket Non Tender dengan status "Paket Sudah Selesai" yang diambil dari SPSE . 2. Monitoring Non Tender digunakan untuk memastikan PPK telah menginputkan E-kontrak pada SPSE dan Penilaian Kinerja Penyedia pada SIKaP3. Status Penilaian Kinerja = "Terisi" jika PPK telah melakukan penilaian kinerja pada aplikasi SIKaP.
| # | Nama Satker | Kd Nontender | Kd Rup | Nama Paket | Pagu | Hps | Nilai Kontrak | Sumber Dana | Tanggal Selesai Nontender | Nama Penyedia | Status Penilaian Kinerja |
|---|---|---|---|---|---|---|---|---|---|---|---|
| 1901 | DINAS KESEHATAN | 4654255 | 38920997 | Belanja Jasa Tenaga Kesehatan PSC 2 | 29,250,000 | 0 | 29,250,000 | APBD | 2023-01-09 16:00:00 | MULYADI | (not set) |
| 1902 | DINAS KESEHATAN | 4656255 | 38921026 | Belanja Jasa Tenaga Kesehatan PSC 3 | 29,250,000 | 0 | 29,250,000 | APBD | 2023-01-09 16:00:00 | Tri Handaka Mulya | (not set) |
| 1903 | DINAS KESEHATAN | 4671255 | 38921079 | Belanja Jasa Tenaga Kesehatan PSC 4 | 29,250,000 | 0 | 29,250,000 | APBD | 2023-01-09 16:00:00 | Fajar Bakti Riyanto | (not set) |
| 1904 | DINAS KESEHATAN | 4672255 | 38921097 | Belanja Jasa Tenaga Kesehatan PSC 5 | 29,250,000 | 0 | 29,250,000 | APBD | 2023-01-09 16:00:00 | HAEFIDYANANTA | (not set) |
| 1905 | DINAS KESEHATAN | 4673255 | 38921122 | Belanja Jasa Tenaga Kesehatan PSC 6 | 29,250,000 | 0 | 29,250,000 | APBD | 2023-01-09 16:00:00 | Lutfiana Dewi | (not set) |
| 1906 | DINAS KESEHATAN | 4675255 | 38921111 | Belanja Jasa Tenaga Kesehatan PSC 7 | 29,250,000 | 0 | 29,250,000 | APBD | 2023-01-09 16:00:00 | Neny wahyu yulianti | (not set) |
| 1907 | DINAS KESEHATAN | 4679255 | 38921160 | Belanja Jasa Tenaga Kesehatan PSC 8 | 29,250,000 | 0 | 29,250,000 | APBD | 2023-01-09 16:00:00 | ENDAH DWI KRISNAWATI | (not set) |
| 1908 | DINAS KESEHATAN | 4680255 | 38921176 | Belanja Jasa Tenaga Kesehatan PSC 9 | 29,250,000 | 0 | 29,250,000 | APBD | 2023-01-09 16:00:00 | Dian Listya Elita | (not set) |
| 1909 | DINAS KESEHATAN | 4683255 | 38921192 | Belanja Jasa Tenaga Kesehatan PSC 10 | 29,250,000 | 0 | 29,250,000 | APBD | 2023-01-09 16:00:00 | ANNISA UTAMI WAHYUNINGTYAS | (not set) |
| 1910 | DINAS KESEHATAN | 4688255 | 38921198 | Belanja Jasa Tenaga Kesehatan PSC 11 | 29,250,000 | 0 | 29,250,000 | APBD | 2023-01-09 16:00:00 | Deasty Putri Natalinda | (not set) |
| 1911 | DINAS KESEHATAN | 4689255 | 38921202 | Belanja Jasa Tenaga Kesehatan PSC 12 | 29,250,000 | 0 | 29,250,000 | APBD | 2023-01-09 16:00:00 | Fendy Dwi Setiawan | (not set) |
| 1912 | DINAS KESEHATAN | 4695255 | 38920937 | Belanja Jasa Tenaga Kesehatan | 29,250,000 | 0 | 29,250,000 | APBD | 2023-01-09 16:00:00 | Dony Irawan | (not set) |
| 1913 | KECAMATAN SUKOMORO | 4702255 | 38387439 | Belanja Jasa Tenaga Administrasi | 45,500,000 | 0 | 19,250,000 | APBD | 2023-01-06 14:30:00 | TIARA EBTI DWI KARTIKA | (not set) |
| 1914 | KECAMATAN SUKOMORO | 4703255 | 38387556 | Belanja Jasa Tenaga Pelayanan Umum | 39,000,000 | 0 | 16,500,000 | APBD | 2023-01-06 14:30:00 | SUKARNO | (not set) |
| 1915 | DINAS KESEHATAN | 4707255 | 38891053 | Belanja Jasa Tenaga Supir Labkesda (Perpanjangan) | 26,260,000 | 0 | 26,260,000 | APBD | 2023-01-09 16:00:00 | Wisnu hidayat | (not set) |
| 1916 | DINAS KESEHATAN | 4723255 | 38800555 | Belanja Jasa Tenaga Keamanan Labkesda 1(Perpanjangan) | 26,260,000 | 0 | 26,260,000 | APBD | 2023-01-09 16:00:00 | Agus purwadi | (not set) |
| 1917 | DINAS KESEHATAN | 4733255 | 38843124 | Belanja Jasa Tenaga Pelayanan Umum Jasa Tenaga Keamanan dari dana Operasional | 19,500,000 | 0 | 19,500,000 | APBD | 2023-01-10 14:00:00 | YAYAN DWI KURNIAWAN | (not set) |
| 1918 | DINAS KESEHATAN | 4741255 | 38772856 | Belanja Jasa Tenaga Pelayanan Umum Tenaga pengelola makanan dari Dana Operasional | 19,500,000 | 0 | 19,500,000 | APBD | 2023-01-10 14:00:00 | EVI KUSUMAWATI | (not set) |
| 1919 | KECAMATAN MAOSPATI | 4756255 | 38648099 | Belanja Jasa Tenaga Kebersihan (Kec. Maospati) | 16,500,000 | 0 | 8,250,000 | APBD | 2023-01-06 17:00:00 | SUPRAYITNO | (not set) |
| 1920 | DINAS KESEHATAN | 4796255 | 38936960 | Belanja Jasa Tenaga Kebersihan Labkesda 1 (Perpanjangan) | 26,260,000 | 0 | 26,260,000 | APBD | 2023-01-09 16:00:00 | WARSITO | (not set) |
MONITORING TENDER
Informasi
1. Data Tender merupakan Paket Tender dengan status "Paket Sudah Selesai" yang diambil dari SPSE . 2. Monitoring Tender digunakan untuk memastikan PPK telah menginputkan E-kontrak pada SPSE dan Penilaian Kinerja Penyedia pada SIKaP3. Status Penilaian Kinerja = "Terisi" jika PPK telah melakukan penilaian kinerja pada aplikasi SIKaP.
| # | Kd Tender | Tahun Anggaran | Nama Satker | Kd Rup | Nama Paket | Pagu | Hps | Sumber Dana | Nilai Kontrak | Nama Penyedia | Tgl Penetapan Pemenang | Status Penilaian Kinerja |
|---|---|---|---|---|---|---|---|---|---|---|---|---|
| 1 | 10086853000 | 2025 | DINAS PEKERJAAN UMUM DAN PENATAAN RUANG | 54689775 | Pembangunan Embung Sidowayah | 650000000 | 649141000 | APBD | 619648601 | WIJAYA KARYA SEJATI | 2025-10-10 17:00:00 | (not set) |
| 2 | 10086851000 | 2025 | DINAS PEKERJAAN UMUM DAN PENATAAN RUANG | 54689777 | Pembangunan Embung Kawedanan, Terung | 500000000 | 497008000 | APBD | 472778577 | CV. Surya Galaxy | 2025-10-10 17:00:00 | (not set) |
| 3 | 10085054000 | 2025 | DINAS PEKERJAAN UMUM DAN PENATAAN RUANG | 60291185 | Pemeliharaan Berkala Jalan Tebon-Stasiun Magetan | 1315000000 | 1307940000 | APBDP | (not set) | (not set) | 2025-10-03 11:30:00 | (not set) |
| 4 | 10081594000 | 2025 | DINAS PEKERJAAN UMUM DAN PENATAAN RUANG | 60296716 | Pembangunan Sumur Air Tanah Dalam SDKMG Desa Tladan dan Desa Botok, Beserta Peralatan dan Pemasangan Pompa | 1300000000 | 1300000000 | APBD | 1268000000 | CV. BUDI LUHUR | 2025-10-01 14:00:00 | (not set) |
| 5 | 10080491000 | 2025 | DINAS PEKERJAAN UMUM DAN PENATAAN RUANG | 60296695 | Pembangunan Sumur Air Tanah Dalam SDKMG Desa Tapen dan Desa Tambakmas, Beserta Peralatan dan Pemasangan Pompa | 1100000000 | 1100000000 | APBD | 1075000000 | CV. ROHMAT | 2025-10-01 14:00:00 | (not set) |
| 6 | 10080049000 | 2025 | DINAS PEKERJAAN UMUM DAN PENATAAN RUANG | 60461662 | Rehabilitasi Jaringan Irigasi DI Sadon | 560100000 | 555348000 | APBD | 444278400 | PURWOTO | 2025-09-29 16:00:00 | (not set) |
| 7 | 10023398000 | 2025 | DINAS KESEHATAN | 54938336 | Jasa Konsultansi Pengawasan Pembangunan Gedung Rumah Sakit (Puskesmas Panekan) | 300000000 | 299977500 | APBD | 240481500 | PT. PILAREMPAT CONSULTAN | 2025-05-28 16:00:00 | (not set) |
| 8 | 12083255 | 2024 | DINAS PENDIDIKAN, KEPEMUDAAN DAN OLAHRAGA | 47581846 | Jasa Konsultansi Pengawasan Pembangunan Sirkuit Kabupaten Magetan | 350157300 | 349999983 | APBD | 317922038 | PT. SKALA PILAR LIMA | 2024-07-30 15:30:00 | (not set) |
| 9 | 12082255 | 2024 | BADAN PERENCANAAN PEMBANGUNAN, PENELITIAN DAN PENGEMBANGAN DAERAH | 51431929 | Jasa Konsultansi Mitigasi Perubahan Iklim Melalui Identifikasi Karbon | 200000000 | 198168300 | APBD | 166722000 | PT TOTAL CIPTA PERSADA | 2024-07-25 16:00:00 | (not set) |
| 10 | 10992255 | 2023 | DINAS PEKERJAAN UMUM DAN PENATAAN RUANG | 44138092 | Pemeliharaan Berkala Jalan Genengan - Takeran | 1800000000 | 1791317000 | APBD | (not set) | (not set) | 2023-11-10 14:30:00 | (not set) |
| 11 | 10984255 | 2023 | KECAMATAN MAOSPATI | 40341941 | BELANJA MODAL BANGUNAN GEDUNG TEMPAT KERJA LAINNYA PEMBANGUNAN LANJUTAN GEDUNG KEBUDAYAAN | 240000000 | 237931000 | APBD | 190344800 | CV. VAMROZ BINTANG PRATAMA | 2023-10-11 14:30:00 | (not set) |
| 12 | 10951255 | 2023 | DINAS KESEHATAN | 43956365 | Pembangunan Puskesmas Pembantu Ngelang | 600000000 | 447418000 | APBD | 357934400 | SALSA MANDIRI | 2023-09-22 16:30:00 | (not set) |
| 13 | 10972255 | 2023 | DINAS PENDIDIKAN, KEPEMUDAAN DAN OLAHRAGA | 43870656 | Jasa Konsultansi Perencanaan dan Penyusunan Masterplan Pembangunan Sirkuit Kabupaten Magetan | 800000000 | 776178600 | APBD | 776056500 | CV. CIPTA PURNAMA MANDIRI | 2023-09-21 19:00:00 | (not set) |
| 14 | 10865255 | 2023 | DINAS PENDIDIKAN, KEPEMUDAAN DAN OLAHRAGA | 42710723 | Rehabilitasi Ruang Kelas SMPN 1 Kawedanan | 546000000 | 543734000 | APBD | 434987200 | ESTETIKA CV | 2023-09-15 15:00:00 | (not set) |
| 15 | 10866255 | 2023 | DINAS PENDIDIKAN, KEPEMUDAAN DAN OLAHRAGA | 42708925 | Rehabilitasi Ruang Kelas SMPN 1 Nguntoronadi | 700000000 | 697732000 | APBD | 558185600 | CV.DEA KONTRAKTOR | 2023-09-15 15:00:00 | (not set) |
| 16 | 10867255 | 2023 | DINAS PENDIDIKAN, KEPEMUDAAN DAN OLAHRAGA | 42710780 | Rehabilitasi Ruang Kelas SMPN 1 Plaosan | 500000000 | 499724000 | APBD | 399779200 | ESTETIKA CV | 2023-09-08 15:00:00 | (not set) |
| 17 | 10868255 | 2023 | DINAS PENDIDIKAN, KEPEMUDAAN DAN OLAHRAGA | 42710943 | Rehabilitasi Ruang Kelas SMPN 4 Magetan | 700000000 | 698736000 | APBD | 558988800 | CV. Jalu Mampang | 2023-09-08 15:00:00 | (not set) |
| 18 | 10970255 | 2023 | DINAS PETERNAKAN DAN PERIKANAN | 40159675 | Pembangunan Konstruksi KSL Lanjutan | 1100000000 | 904700000 | APBD | 741379925 | CV KRISNA DWI KARYA | 2023-08-29 17:00:00 | (not set) |
| 19 | 10950255 | 2023 | DINAS PEKERJAAN UMUM DAN PENATAAN RUANG | 43049995 | Pembangunan Plaza Ndoyo | 1250000000 | 1249640000 | APBD | 1083394356 | CV. BUDI LUHUR | 2023-08-23 15:15:00 | (not set) |
| 20 | 10962255 | 2023 | DINAS PEKERJAAN UMUM DAN PENATAAN RUANG | 39676632 | Rehabilitasi Jalan Karas-Kuwon | 452000000 | 445467000 | APBD | 356373600 | SALSA MANDIRI | 2023-08-15 16:30:00 | (not set) |